Time;durP1;ratioP1;P1;durP2;ratioP2;P2;SDS_P1;SDS_P2;PMS_P1;PMS_P2;Temp;Humidity;BMP_temperature;BMP_pressure;BME280_temperature;BME280_humidity;BME280_pressure;Samples;Min_cycle;Max_cycle;Signal;HPM_P1;HPM_P2
2021/07/22 00:01:45;;;;;;;17.70;10.35;;;14.30;99.90;;;15.59;95.18;101186.25;6279739;22;20019;-87
2021/07/22 00:04:14;;;;;;;17.95;11.52;;;14.40;99.90;;;15.56;95.09;101191.84;6279249;22;20338;-87
2021/07/22 00:06:39;;;;;;;17.70;10.68;;;14.30;99.90;;;15.53;95.61;101189.78;6293945;22;20004;-86
2021/07/22 00:09:05;;;;;;;20.45;12.00;;;14.20;99.90;;;15.46;95.67;101187.63;6292829;22;20315;-85
2021/07/22 00:11:32;;;;;;;19.65;11.43;;;14.20;99.90;;;15.39;95.81;101186.69;6279519;22;20012;-86
2021/07/22 00:14:01;;;;;;;17.85;10.95;;;14.10;99.90;;;15.31;96.16;101178.13;6280533;22;20003;-85
2021/07/22 00:16:27;;;;;;;17.20;10.88;;;14.10;99.90;;;15.36;96.30;101187.47;6280035;22;20003;-85
2021/07/22 00:18:56;;;;;;;16.35;10.32;;;14.10;99.90;;;15.36;96.40;101185.47;6278519;22;20058;-86
2021/07/22 00:21:22;;;;;;;20.98;11.52;;;14.10;99.90;;;15.34;96.62;101182.22;6280254;22;20015;-88
2021/07/22 00:23:48;;;;;;;18.42;11.32;;;14.10;99.90;;;15.32;96.52;101182.59;6279756;22;20242;-88
2021/07/22 00:26:16;;;;;;;17.85;10.60;;;14.10;99.90;;;15.32;96.47;101188.22;6279464;22;19996;-88
2021/07/22 00:28:42;;;;;;;17.58;12.68;;;14.00;99.90;;;15.27;96.56;101190.53;6283402;22;20012;-87
2021/07/22 00:31:08;;;;;;;18.48;10.70;;;14.00;99.90;;;15.21;96.48;101190.06;6290161;22;20007;-88
2021/07/22 00:33:43;;;;;;;18.05;10.75;;;14.00;99.90;;;15.17;96.71;101186.38;6286849;22;20008;-86
2021/07/22 00:36:13;;;;;;;17.60;11.80;;;13.90;99.90;;;15.13;97.01;101179.03;6297529;22;20031;-86
2021/07/22 00:38:39;;;;;;;18.05;12.02;;;13.90;99.90;;;15.17;96.98;101183.56;6279125;22;20014;-87
2021/07/22 00:41:10;;;;;;;18.83;10.63;;;13.90;99.90;;;15.17;97.11;101175.09;6280633;22;20014;-86
2021/07/22 00:43:42;;;;;;;14.63;10.10;;;13.90;99.90;;;15.18;97.06;101188.00;6279202;22;20008;-85
2021/07/22 00:46:09;;;;;;;16.75;10.93;;;13.90;99.90;;;15.20;97.16;101184.78;6279775;22;20403;-92
2021/07/22 00:48:35;;;;;;;15.88;10.40;;;13.90;99.90;;;15.16;97.01;101179.09;6279932;22;20060;-86
2021/07/22 00:51:13;;;;;;;19.38;10.85;;;13.90;99.90;;;15.16;96.94;101175.47;6278317;22;20047;-87
2021/07/22 00:53:39;;;;;;;21.27;11.60;;;13.90;99.90;;;15.20;97.13;101174.34;6280083;22;20004;-87
2021/07/22 00:56:05;;;;;;;15.20;10.38;;;13.90;99.90;;;15.26;96.90;101170.03;6278972;22;20082;-86
2021/07/22 00:58:35;;;;;;;23.15;11.30;;;13.90;99.90;;;15.25;96.73;101161.97;6278970;22;20015;-88
2021/07/22 01:01:04;;;;;;;19.08;11.43;;;13.90;99.90;;;15.23;96.96;101173.59;6279141;22;20012;-90
2021/07/22 01:03:39;;;;;;;17.77;11.73;;;13.90;99.90;;;15.26;96.46;101164.41;6280483;22;20012;-89
2021/07/22 01:06:05;;;;;;;17.33;10.90;;;14.00;99.90;;;15.26;96.56;101160.75;6278017;22;20015;-88
2021/07/22 01:08:31;;;;;;;19.17;11.55;;;13.90;99.90;;;15.32;97.51;101164.88;6278663;22;20059;-89
2021/07/22 01:10:56;;;;;;;20.85;11.57;;;14.10;99.90;;;15.53;97.27;101158.81;6277752;22;20310;-87
2021/07/22 01:13:22;;;;;;;17.83;11.85;;;14.20;99.90;;;15.72;96.16;101164.31;6277309;22;20030;-89
2021/07/22 01:15:48;;;;;;;18.52;12.05;;;14.40;99.90;;;15.82;95.36;101164.47;6278509;22;20084;-89
2021/07/22 01:18:14;;;;;;;19.20;11.02;;;14.50;99.90;;;15.83;94.79;101166.09;6279655;22;20082;-87
2021/07/22 01:20:40;;;;;;;14.73;9.57;;;14.50;99.90;;;15.77;94.57;101175.25;6278271;22;20119;-86
2021/07/22 01:23:06;;;;;;;13.73;9.93;;;14.40;99.90;;;15.66;95.01;101171.47;6277544;22;20345;-89
2021/07/22 01:25:31;;;;;;;18.33;10.45;;;14.40;99.90;;;15.55;94.89;101170.50;6278863;22;20325;-86
2021/07/22 01:27:58;;;;;;;15.20;9.60;;;14.30;99.90;;;15.55;95.41;101181.75;6278305;22;20057;-87
2021/07/22 01:30:24;;;;;;;14.35;9.85;;;14.20;99.90;;;15.51;95.77;101167.63;6277965;22;20190;-89
2021/07/22 01:32:52;;;;;;;19.73;10.82;;;14.20;99.90;;;15.47;95.71;101168.75;6278849;22;20008;-87
2021/07/22 01:35:19;;;;;;;16.88;10.52;;;14.20;99.90;;;15.46;95.67;101169.94;6276527;22;20019;-87
2021/07/22 01:37:45;;;;;;;17.90;11.68;;;14.20;99.90;;;15.42;95.75;101163.44;6277066;22;20014;-88
2021/07/22 01:40:13;;;;;;;20.88;11.70;;;14.10;99.90;;;15.45;96.11;101157.03;6276814;22;20008;-87
2021/07/22 01:42:39;;;;;;;18.38;11.38;;;14.10;99.90;;;15.50;96.00;101163.22;6276322;22;20015;-85
2021/07/22 01:45:08;;;;;;;17.85;11.35;;;14.20;99.90;;;15.53;96.19;101153.19;6277382;22;20011;-90
2021/07/22 01:47:36;;;;;;;20.20;10.90;;;14.20;99.90;;;15.65;95.93;101153.78;6279334;22;20057;-87
2021/07/22 01:50:03;;;;;;;16.30;10.88;;;14.40;99.90;;;15.81;95.55;101162.03;6277445;22;20012;-86
2021/07/22 01:52:29;;;;;;;17.35;11.02;;;14.50;99.90;;;15.90;94.84;101162.56;6278428;22;20062;-85
2021/07/22 01:54:55;;;;;;;19.40;11.48;;;14.60;99.90;;;15.92;94.63;101148.91;6277064;22;20011;-87
2021/07/22 01:57:21;;;;;;;16.60;10.77;;;14.60;99.90;;;15.90;94.42;101147.66;6276427;22;20012;-86
2021/07/22 01:59:48;;;;;;;14.27;9.82;;;14.50;99.90;;;15.81;94.40;101148.75;6277926;22;20032;-85
2021/07/22 02:02:15;;;;;;;18.25;10.75;;;14.50;99.90;;;15.76;94.62;101153.94;6278454;22;20425;-89
2021/07/22 02:04:42;;;;;;;16.60;10.25;;;14.40;99.90;;;15.72;94.61;101155.88;6276189;22;20094;-86
2021/07/22 02:07:14;;;;;;;16.15;11.00;;;14.40;99.90;;;15.62;94.49;101150.91;6276379;22;20333;-86
2021/07/22 02:09:39;;;;;;;14.88;9.95;;;14.30;99.90;;;15.54;94.74;101146.38;6277492;22;20004;-87
2021/07/22 02:12:06;;;;;;;17.05;10.65;;;14.20;99.90;;;15.54;95.11;101157.63;6277119;22;20035;-86
2021/07/22 02:14:32;;;;;;;17.63;10.55;;;14.20;99.90;;;15.49;95.37;101157.94;6277822;22;20023;-87
2021/07/22 02:16:58;;;;;;;16.40;10.43;;;14.10;99.90;;;15.41;95.73;101156.19;6277926;22;20015;-86
2021/07/22 02:19:23;;;;;;;17.88;10.82;;;14.10;99.90;;;15.39;95.61;101152.91;6275313;22;20019;-86
2021/07/22 02:21:49;;;;;;;16.33;10.30;;;14.10;99.90;;;15.36;95.75;101153.69;6275705;22;20008;-86
2021/07/22 02:24:16;;;;;;;14.57;9.98;;;14.10;99.90;;;15.37;95.86;101156.13;6275342;22;20337;-86
2021/07/22 02:26:42;;;;;;;15.60;9.43;;;14.10;99.90;;;15.38;95.91;101157.72;6275446;22;20410;-87
2021/07/22 02:29:18;;;;;;;17.25;9.93;;;14.00;99.90;;;15.37;96.22;101153.31;6287541;22;20040;-86
2021/07/22 02:31:44;;;;;;;17.00;9.85;;;14.10;99.90;;;15.44;96.37;101155.44;6293589;22;20019;-88
2021/07/22 02:34:09;;;;;;;14.43;9.50;;;14.00;99.90;;;15.42;96.25;101146.53;6276524;22;20073;-87
2021/07/22 02:36:35;;;;;;;15.48;9.70;;;14.00;99.90;;;15.39;96.20;101147.28;6276064;22;20012;-86
2021/07/22 02:39:01;;;;;;;16.90;10.50;;;14.00;99.90;;;15.34;96.42;101145.63;6276105;22;20010;-87
2021/07/22 02:41:29;;;;;;;13.75;9.30;;;14.00;99.90;;;15.31;96.47;101154.84;6275021;22;20058;-88
2021/07/22 02:43:57;;;;;;;21.45;10.32;;;14.00;99.90;;;15.29;96.77;101151.56;6275890;22;20000;-87
2021/07/22 02:46:22;;;;;;;14.88;9.88;;;14.00;99.90;;;15.27;96.81;101157.59;6277346;22;20008;-88
2021/07/22 02:48:48;;;;;;;16.45;9.98;;;13.90;99.90;;;15.26;96.87;101158.78;6277384;22;20029;-86
2021/07/22 02:51:14;;;;;;;16.80;10.07;;;14.00;99.90;;;15.24;97.02;101147.09;6278220;22;20018;-88
2021/07/22 02:53:40;;;;;;;15.68;10.05;;;13.90;99.90;;;15.31;97.22;101157.66;6277358;22;20017;-88
2021/07/22 02:56:06;;;;;;;14.82;8.95;;;13.90;99.90;;;15.29;97.13;101160.81;6278158;22;20015;-90
2021/07/22 02:58:32;;;;;;;15.10;9.90;;;14.00;99.90;;;15.27;97.34;101157.59;6278373;22;20351;-89
2021/07/22 03:00:58;;;;;;;15.05;9.63;;;13.90;99.90;;;15.30;97.13;101154.03;6279323;22;20079;-88
2021/07/22 03:03:24;;;;;;;17.05;9.98;;;14.00;99.90;;;15.36;97.35;101162.94;6276059;22;20012;-88
2021/07/22 03:05:50;;;;;;;14.02;9.32;;;14.00;99.90;;;15.34;97.42;101156.06;6276072;22;20011;-88
2021/07/22 03:08:16;;;;;;;15.45;9.68;;;14.00;99.90;;;15.41;97.35;101167.44;6276903;22;20004;-88
2021/07/22 03:10:42;;;;;;;14.38;10.20;;;14.00;99.90;;;15.42;97.26;101166.25;6276698;22;20460;-87
2021/07/22 03:13:08;;;;;;;14.82;10.43;;;14.00;99.90;;;15.45;97.12;101154.22;6278450;22;20011;-88
2021/07/22 03:15:35;;;;;;;17.85;10.05;;;14.00;99.90;;;15.46;96.94;101164.31;6277551;22;20027;-89
2021/07/22 03:18:01;;;;;;;15.30;10.35;;;14.10;99.90;;;15.49;96.97;101155.13;6277855;22;20012;-90
2021/07/22 03:20:27;;;;;;;14.00;9.07;;;14.10;99.90;;;15.53;96.57;101159.63;6279084;22;20011;-90
2021/07/22 03:22:53;;;;;;;13.45;9.05;;;14.10;99.90;;;15.57;96.51;101154.06;6281234;22;20039;-91
2021/07/22 03:25:20;;;;;;;13.57;9.00;;;14.20;99.90;;;15.58;96.58;101155.66;6281869;22;20004;-87
2021/07/22 03:27:46;;;;;;;15.13;9.80;;;14.20;99.90;;;15.56;96.30;101158.06;6286495;22;20030;-86
2021/07/22 03:30:13;;;;;;;17.05;9.45;;;14.20;99.90;;;15.53;96.40;101154.00;6290492;22;20007;-85
2021/07/22 03:32:41;;;;;;;15.32;10.13;;;14.20;99.90;;;15.52;96.19;101149.56;6289115;22;20003;-90
2021/07/22 03:35:09;;;;;;;15.15;10.25;;;14.20;99.90;;;15.54;95.96;101149.19;6283611;22;20008;-91
2021/07/22 03:37:36;;;;;;;16.80;10.55;;;14.10;99.90;;;15.53;95.89;101154.00;6281343;22;20000;-90
2021/07/22 03:40:03;;;;;;;16.02;10.10;;;14.10;99.90;;;15.49;95.95;101144.69;6280026;22;20012;-86
2021/07/22 03:42:30;;;;;;;20.02;9.90;;;14.10;99.90;;;15.49;96.22;101138.22;6284100;22;20418;-89
2021/07/22 03:44:55;;;;;;;16.85;10.68;;;14.10;99.90;;;15.46;96.28;101136.97;6289966;22;20004;-89
2021/07/22 03:47:21;;;;;;;15.88;10.15;;;14.10;99.90;;;15.48;96.23;101142.22;6288697;22;20008;-88
2021/07/22 03:49:47;;;;;;;17.25;10.82;;;14.10;99.90;;;15.48;96.02;101140.22;6290458;22;20047;-89
2021/07/22 03:52:13;;;;;;;14.40;10.05;;;14.10;99.90;;;15.52;95.97;101137.47;6283803;22;20057;-88
2021/07/22 03:54:39;;;;;;;13.57;9.32;;;14.10;99.90;;;15.54;96.07;101140.75;6282080;22;20008;-91
2021/07/22 03:57:06;;;;;;;14.73;9.18;;;14.10;99.90;;;15.58;96.15;101141.56;6280114;22;20095;-86
2021/07/22 03:59:32;;;;;;;14.77;9.60;;;14.20;99.90;;;15.58;96.19;101138.75;6290902;22;20003;-86
2021/07/22 04:02:02;;;;;;;15.05;9.75;;;14.20;99.90;;;15.55;96.13;101145.97;6285631;22;20019;-90
2021/07/22 04:04:27;;;;;;;15.75;9.48;;;14.20;99.90;;;15.57;96.08;101140.75;6287827;22;20050;-88
2021/07/22 04:06:53;;;;;;;16.50;10.75;;;14.30;99.90;;;15.60;96.08;101139.22;6289004;22;20413;-87
2021/07/22 04:09:19;;;;;;;16.20;10.13;;;14.30;99.90;;;15.58;95.99;101139.59;6288178;22;20003;-88
2021/07/22 04:11:45;;;;;;;14.60;9.52;;;14.20;99.90;;;15.63;95.84;101139.28;6282046;22;20008;-90
2021/07/22 04:14:13;;;;;;;16.05;9.98;;;14.30;99.90;;;15.63;95.78;101135.63;6282019;22;20004;-88
2021/07/22 04:16:39;;;;;;;13.85;9.80;;;14.30;99.90;;;15.69;95.52;101142.56;6304520;22;20414;-90
2021/07/22 04:19:05;;;;;;;17.13;10.20;;;14.30;99.90;;;15.74;95.28;101139.41;6279911;22;20000;-89
2021/07/22 04:21:31;;;;;;;17.25;9.90;;;14.30;99.90;;;15.81;95.45;101147.94;6277767;22;20003;-88
2021/07/22 04:23:57;;;;;;;18.35;9.85;;;14.40;99.90;;;15.80;95.30;101143.50;6279807;22;20087;-89
2021/07/22 04:26:23;;;;;;;16.60;10.10;;;14.50;99.90;;;15.85;95.15;101150.81;6280110;22;20063;-88
2021/07/22 04:28:54;;;;;;;18.05;9.82;;;14.40;99.90;;;15.87;95.13;101142.78;6279945;22;20481;-88
2021/07/22 04:31:20;;;;;;;14.85;9.13;;;14.50;99.90;;;15.91;94.92;101143.66;6279372;22;20024;-88
2021/07/22 04:33:48;;;;;;;15.07;9.82;;;14.60;99.90;;;15.93;94.76;101141.25;6283251;22;20069;-89
2021/07/22 04:36:14;;;;;;;14.68;9.95;;;14.60;99.90;;;15.97;94.55;101145.75;6281935;22;20008;-87
2021/07/22 04:38:43;;;;;;;15.38;9.55;;;14.60;99.90;;;16.01;94.65;101148.63;6283809;22;20014;-89
2021/07/22 04:41:10;;;;;;;18.23;10.73;;;14.60;99.90;;;16.12;94.38;101153.19;6282460;22;20014;-87
2021/07/22 04:43:36;;;;;;;14.63;9.77;;;14.70;99.90;;;16.22;93.92;101152.50;6280658;22;20015;-87
2021/07/22 04:46:06;;;;;;;14.48;9.18;;;14.80;99.90;;;16.34;93.66;101151.44;6281003;22;20011;-87
2021/07/22 04:48:33;;;;;;;16.05;9.68;;;14.90;99.90;;;16.40;93.45;101152.72;6283062;22;20471;-87
2021/07/22 04:51:05;;;;;;;13.27;8.80;;;15.00;99.90;;;16.48;93.25;101154.41;6289341;22;19995;-87
2021/07/22 04:53:32;;;;;;;14.43;9.82;;;15.00;99.90;;;16.53;93.10;101151.25;6296136;22;20011;-88
2021/07/22 04:55:58;;;;;;;15.77;9.45;;;15.10;99.90;;;16.60;92.80;101151.34;6285398;22;20060;-87
2021/07/22 04:58:24;;;;;;;14.07;9.50;;;15.10;99.90;;;16.63;92.78;101155.44;6280997;22;20008;-87
2021/07/22 05:00:49;;;;;;;14.32;9.52;;;15.20;99.90;;;16.66;92.36;101152.63;6283534;22;20003;-88
2021/07/22 05:03:15;;;;;;;14.80;9.18;;;15.20;99.90;;;16.69;92.24;101157.50;6281211;22;20015;-86
2021/07/22 05:05:42;;;;;;;16.20;9.88;;;15.30;99.90;;;16.80;92.04;101161.22;6281161;22;20004;-89
2021/07/22 05:08:08;;;;;;;16.05;9.45;;;15.30;99.90;;;16.91;91.96;101157.72;6283072;22;20500;-88
2021/07/22 05:10:33;;;;;;;19.33;10.13;;;15.40;99.90;;;17.04;91.65;101154.22;6284183;22;20004;-87
2021/07/22 05:13:03;;;;;;;16.52;10.65;;;15.60;99.90;;;17.25;91.23;101157.19;6282562;22;20018;-86
2021/07/22 05:15:30;;;;;;;13.85;9.18;;;15.70;99.90;;;17.52;90.37;101157.81;6283942;22;20007;-89
2021/07/22 05:17:59;;;;;;;15.55;9.88;;;15.80;99.90;;;17.75;89.93;101158.41;6284031;22;20433;-89
2021/07/22 05:20:24;;;;;;;15.32;9.15;;;16.10;99.90;;;18.00;89.26;101157.72;6281851;22;20008;-88
2021/07/22 05:22:50;;;;;;;16.33;9.55;;;16.30;99.90;;;18.18;88.61;101164.25;6281788;22;20003;-88
2021/07/22 05:25:16;;;;;;;17.08;10.85;;;16.40;99.90;;;18.16;87.68;101159.00;6281340;22;19999;-88
2021/07/22 05:27:42;;;;;;;19.17;9.90;;;16.50;99.90;;;18.15;86.82;101154.53;6281820;22;20019;-88
2021/07/22 05:30:09;;;;;;;22.48;10.05;;;16.50;99.90;;;18.11;86.30;101152.94;6281070;22;20337;-90
2021/07/22 05:32:35;;;;;;;20.45;10.63;;;16.50;99.90;;;18.06;85.93;101154.09;6281025;22;20015;-89
2021/07/22 05:35:00;;;;;;;15.73;9.70;;;16.60;99.90;;;18.09;86.40;101152.50;6281328;22;20003;-88
2021/07/22 05:37:27;;;;;;;13.75;9.38;;;16.50;99.90;;;18.12;86.10;101154.53;6283099;22;20008;-88
2021/07/22 05:39:53;;;;;;;14.45;9.68;;;16.50;99.90;;;18.16;86.17;101158.19;6281892;22;20086;-88
2021/07/22 05:42:19;;;;;;;19.33;11.20;;;16.60;99.90;;;18.13;85.93;101154.16;6281623;22;20012;-90
2021/07/22 05:44:45;;;;;;;19.48;9.73;;;16.60;99.90;;;18.32;85.94;101159.47;6280899;22;20004;-89
2021/07/22 05:47:10;;;;;;;15.05;9.27;;;16.70;99.90;;;18.59;84.73;101153.53;6281370;22;20008;-86
2021/07/22 05:49:38;;;;;;;19.48;9.50;;;16.90;99.90;;;18.82;83.85;101157.59;6278176;22;20078;-87
2021/07/22 05:52:05;;;;;;;15.63;10.05;;;17.10;99.90;;;18.97;83.39;101157.63;6279578;22;20007;-85
2021/07/22 05:54:31;;;;;;;16.90;10.00;;;17.30;99.90;;;19.19;82.88;101160.06;6278403;22;20495;-87
2021/07/22 05:56:56;;;;;;;14.73;9.85;;;17.40;99.90;;;19.57;81.49;101155.59;6277386;22;20011;-85
2021/07/22 05:59:22;;;;;;;14.98;9.05;;;17.80;99.90;;;19.85;79.47;101151.88;6276834;22;20012;-86
2021/07/22 06:01:51;;;;;;;15.23;9.93;;;18.00;99.90;;;20.07;78.22;101152.66;6277193;22;20012;-87
2021/07/22 06:04:17;;;;;;;16.70;10.15;;;18.20;99.90;;;19.93;77.35;101148.63;6278510;22;20027;-88
2021/07/22 06:06:43;;;;;;;19.48;9.88;;;18.30;99.90;;;19.86;77.47;101160.00;6277173;22;20026;-87
2021/07/22 06:09:11;;;;;;;18.27;10.07;;;18.20;99.90;;;19.83;77.37;101163.66;6278357;22;20311;-87
2021/07/22 06:11:37;;;;;;;12.57;9.13;;;18.20;99.90;;;19.79;77.62;101153.53;6277392;22;20000;-85
2021/07/22 06:14:05;;;;;;;15.38;9.77;;;18.10;99.90;;;19.68;78.23;101159.22;6275451;22;20082;-85
2021/07/22 06:16:31;;;;;;;14.00;9.75;;;18.00;99.90;;;19.66;78.62;101160.84;6277242;22;20337;-86
2021/07/22 06:18:57;;;;;;;14.48;9.07;;;18.00;99.90;;;19.77;78.62;101153.94;6276272;22;20004;-87
2021/07/22 06:21:25;;;;;;;12.55;8.68;;;18.10;99.90;;;19.87;78.36;101155.91;6276735;22;20007;-88
2021/07/22 06:23:51;;;;;;;19.17;9.32;;;18.20;99.90;;;20.11;78.17;101154.22;6277002;22;20445;-88
2021/07/22 06:26:17;;;;;;;13.60;8.60;;;18.30;99.90;;;20.36;78.27;101163.47;6276650;22;20000;-86
2021/07/22 06:28:43;;;;;;;16.33;9.18;;;18.50;99.90;;;20.56;77.40;101157.28;6276123;22;20004;-87
2021/07/22 06:31:09;;;;;;;13.35;9.15;;;18.70;99.90;;;20.84;76.20;101154.25;6276443;22;20014;-87
2021/07/22 06:33:35;;;;;;;15.10;8.68;;;19.00;99.90;;;21.23;75.38;101163.34;6277162;22;20008;-84
2021/07/22 06:36:01;;;;;;;14.60;8.48;;;19.30;99.90;;;21.66;73.78;101160.09;6277048;22;20019;-85
2021/07/22 06:38:30;;;;;;;13.32;8.90;;;19.60;99.90;;;22.04;71.66;101158.91;6278368;22;20007;-87
2021/07/22 06:40:57;;;;;;;15.18;9.15;;;20.00;99.90;;;22.44;69.93;101166.50;6277355;22;20012;-83
2021/07/22 06:43:23;;;;;;;13.57;8.75;;;20.50;99.90;;;22.98;68.20;101163.72;6301740;22;20061;-87
2021/07/22 06:45:49;;;;;;;14.25;8.95;;;20.80;99.90;;;23.12;67.36;101159.84;6303308;22;20007;-87
2021/07/22 06:48:15;;;;;;;12.07;8.23;;;21.00;99.90;;;23.40;66.73;101168.78;6276725;22;20472;-86
2021/07/22 06:50:40;;;;;;;17.25;8.90;;;21.30;99.90;;;23.83;65.41;101163.06;6302513;22;20011;-88
2021/07/22 06:53:07;;;;;;;14.35;9.07;;;21.70;99.90;;;24.02;64.51;101161.47;6277988;22;20042;-86
2021/07/22 06:55:34;;;;;;;14.70;8.95;;;21.90;99.90;;;24.40;63.62;101165.59;6276609;22;20034;-86
2021/07/22 06:58:10;;;;;;;11.73;8.25;;;22.10;99.90;;;24.12;64.48;101163.34;6277788;22;20083;-88
2021/07/22 07:00:37;;;;;;;13.00;8.65;;;22.10;99.90;;;23.84;65.38;101158.97;6276555;22;20014;-86
2021/07/22 07:03:09;;;;;;;10.80;7.72;;;21.90;99.90;;;23.61;66.55;101156.97;6278325;22;20081;-86
2021/07/22 07:05:35;;;;;;;15.25;9.18;;;21.70;99.90;;;23.43;67.90;101165.06;6278502;22;20222;-86
2021/07/22 07:08:03;;;;;;;10.25;7.00;;;21.50;99.90;;;23.30;68.60;101160.34;6278432;22;20376;-86
2021/07/22 07:10:30;;;;;;;11.38;7.90;;;21.40;99.90;;;23.25;69.44;101164.50;6277056;22;20004;-84
2021/07/22 07:12:59;;;;;;;14.18;8.68;;;21.40;99.90;;;23.18;68.98;101164.63;6278671;22;20004;-85
2021/07/22 07:15:25;;;;;;;10.65;8.23;;;21.20;99.90;;;23.09;68.49;101158.66;6291057;22;20008;-87
2021/07/22 07:17:51;;;;;;;12.82;7.93;;;21.20;99.90;;;23.04;68.04;101171.38;6297550;22;20472;-87
2021/07/22 07:20:18;;;;;;;13.88;8.52;;;21.10;99.90;;;23.04;69.33;101167.72;6279705;22;20011;-88
2021/07/22 07:22:44;;;;;;;10.60;7.80;;;21.10;99.90;;;22.97;67.43;101170.66;6277242;22;20076;-86
2021/07/22 07:25:11;;;;;;;13.95;7.43;;;21.10;99.90;;;23.06;67.87;101177.44;6279728;22;20000;-87
2021/07/22 07:27:41;;;;;;;10.45;7.50;;;21.10;99.90;;;23.12;68.15;101169.19;6277971;22;20449;-88
2021/07/22 07:30:09;;;;;;;12.77;7.93;;;21.30;99.90;;;23.26;67.50;101171.00;6282060;22;19996;-87
2021/07/22 07:32:35;;;;;;;10.73;7.20;;;21.30;99.90;;;23.38;64.96;101171.19;6286111;22;20011;-88
2021/07/22 07:35:02;;;;;;;11.80;7.65;;;21.40;99.90;;;23.28;63.01;101172.19;6282516;22;20042;-86
2021/07/22 07:37:28;;;;;;;10.88;7.15;;;21.50;99.90;;;23.67;62.83;101180.09;6279873;22;20038;-89
2021/07/22 07:39:54;;;;;;;11.52;7.72;;;21.70;99.90;;;23.93;60.54;101169.81;6279340;22;20011;-86
2021/07/22 07:42:20;;;;;;;12.30;7.55;;;21.90;99.90;;;24.09;58.24;101164.19;6281502;22;20003;-83
2021/07/22 07:44:46;;;;;;;11.20;7.03;;;22.20;99.90;;;24.35;58.11;101165.31;6307051;22;19999;-88
2021/07/22 07:47:13;;;;;;;9.98;6.32;;;22.50;99.90;;;24.51;57.03;101171.09;6282761;22;20591;-86
2021/07/22 07:49:39;;;;;;;12.65;7.78;;;22.80;99.90;;;24.67;55.68;101166.22;6278202;22;20402;-87
2021/07/22 07:52:05;;;;;;;11.05;7.40;;;23.00;99.90;;;25.03;55.79;101174.81;6277771;22;20019;-88
2021/07/22 07:54:31;;;;;;;10.10;7.45;;;23.00;99.90;;;24.72;54.87;101170.63;6279156;22;20080;-87
2021/07/22 07:57:00;;;;;;;11.00;6.10;;;22.90;99.90;;;24.80;55.98;101172.06;6278607;22;20018;-88
2021/07/22 07:59:26;;;;;;;8.77;6.20;;;22.90;99.90;;;24.86;57.60;101170.31;6276389;22;20275;-88
2021/07/22 08:01:51;;;;;;;10.65;7.15;;;22.90;99.90;;;24.87;57.67;101173.97;6279944;22;20035;-88
2021/07/22 08:04:20;;;;;;;9.90;6.82;;;22.90;99.90;;;24.86;57.80;101166.66;6278122;22;20381;-89
2021/07/22 08:06:46;;;;;;;10.07;7.15;;;22.80;99.90;;;24.78;56.99;101168.84;6278229;22;20503;-87
2021/07/22 08:09:12;;;;;;;11.43;7.07;;;22.80;99.90;;;24.90;57.69;101173.91;6281299;22;20003;-87
2021/07/22 08:11:38;;;;;;;13.32;7.63;;;22.90;99.90;;;24.93;56.13;101173.00;6280440;22;20004;-86
2021/07/22 08:14:03;;;;;;;10.02;6.88;;;22.90;99.90;;;24.76;57.20;101173.38;6279623;22;20003;-87
2021/07/22 08:16:36;;;;;;;9.85;6.88;;;22.90;99.90;;;25.04;57.68;101169.91;6281306;22;20007;-87
2021/07/22 08:19:05;;;;;;;9.40;6.53;;;23.00;99.90;;;25.12;57.55;101162.75;6279280;22;20004;-88
2021/07/22 08:21:31;;;;;;;11.73;7.60;;;23.00;99.90;;;25.25;55.73;101159.97;6279435;22;20444;-86
2021/07/22 08:23:58;;;;;;;10.57;6.78;;;23.20;99.90;;;25.23;55.47;101166.16;6280023;22;20008;-86
2021/07/22 08:26:24;;;;;;;10.57;7.72;;;23.20;99.90;;;25.32;55.39;101154.91;6281093;22;20018;-85
2021/07/22 08:28:49;;;;;;;9.55;6.32;;;23.30;99.90;;;25.47;54.97;101161.84;6283235;22;20000;-86
2021/07/22 08:31:17;;;;;;;9.73;6.82;;;23.40;99.90;;;25.62;54.87;101168.03;6281425;22;20038;-87
2021/07/22 08:33:43;;;;;;;10.13;7.22;;;23.40;99.90;;;25.69;55.08;101165.78;6280443;22;20010;-86
2021/07/22 08:36:09;;;;;;;11.27;6.72;;;23.60;99.90;;;25.68;54.63;101167.06;6278031;22;20007;-86
2021/07/22 08:38:35;;;;;;;11.27;7.55;;;23.70;99.90;;;25.88;55.17;101161.16;6279203;22;20420;-87
2021/07/22 08:41:02;;;;;;;9.43;6.88;;;23.80;99.90;;;26.10;54.29;101167.13;6278444;22;20012;-86
2021/07/22 08:43:38;;;;;;;10.38;6.95;;;23.90;99.90;;;26.37;54.32;101161.84;6277184;22;20011;-84
2021/07/22 08:46:05;;;;;;;12.27;7.30;;;24.10;99.90;;;26.52;52.64;101165.88;6279697;22;20309;-89
2021/07/22 08:48:46;;;;;;;12.95;7.43;;;24.40;99.90;;;26.52;51.26;101165.88;6281124;22;20027;-86
2021/07/22 08:51:12;;;;;;;11.80;7.55;;;24.40;99.90;;;26.62;50.93;101161.88;6278710;22;20018;-87
2021/07/22 08:53:38;;;;;;;10.48;7.30;;;24.40;99.90;;;26.87;50.04;101164.00;6278385;22;20007;-88
2021/07/22 08:56:08;;;;;;;12.77;7.90;;;24.50;99.90;;;26.77;51.35;101173.72;6280550;22;20015;-88
2021/07/22 08:58:39;;;;;;;14.25;8.05;;;24.60;99.90;;;26.93;49.89;101167.91;6282439;22;20004;-88
2021/07/22 09:01:10;;;;;;;10.75;8.18;;;24.80;99.90;;;26.66;51.49;101167.50;6306702;22;20004;-87
2021/07/22 09:03:36;;;;;;;11.98;7.63;;;24.80;99.90;;;27.09;50.76;101162.06;6279477;22;20091;-89
2021/07/22 09:06:15;;;;;;;17.52;8.45;;;24.90;99.90;;;27.12;49.05;101161.13;6279841;22;20012;-87
2021/07/22 09:08:42;;;;;;;11.25;7.45;;;25.00;99.90;;;27.36;49.35;101157.88;6280376;22;20475;-86
2021/07/22 09:11:11;;;;;;;14.82;7.88;;;25.20;99.90;;;27.53;48.77;101156.50;6279661;22;20053;-87
2021/07/22 09:13:38;;;;;;;12.95;8.65;;;25.30;99.90;;;27.83;48.53;101155.84;6279480;22;20030;-87
2021/07/22 09:16:12;;;;;;;14.10;7.53;;;25.50;99.90;;;28.08;47.39;101160.69;6279380;22;20294;-89
2021/07/22 09:18:45;;;;;;;10.60;7.18;;;25.70;99.90;;;28.19;45.34;101158.25;6279847;22;20011;-87
2021/07/22 09:21:23;;;;;;;12.65;8.48;;;25.90;96.10;;;27.76;44.86;101153.22;6281393;22;20334;-85
2021/07/22 09:24:10;;;;;;;11.35;8.07;;;26.00;91.60;;;28.05;44.95;101158.72;6280632;22;20350;-87
2021/07/22 09:26:50;;;;;;;10.70;8.00;;;26.00;91.50;;;28.25;43.73;101162.09;6305091;22;20318;-88
2021/07/22 09:29:17;;;;;;;15.98;8.38;;;26.30;88.70;;;28.93;42.32;101157.41;6281105;22;20353;-85
2021/07/22 09:31:46;;;;;;;12.20;8.93;;;26.50;86.40;;;28.77;42.18;101153.50;6288486;22;20016;-86
2021/07/22 09:34:28;;;;;;;11.48;8.50;;;26.70;83.80;;;28.42;44.03;101154.88;6287853;22;20086;-89
2021/07/22 09:36:54;;;;;;;14.13;8.75;;;26.70;85.30;;;28.01;44.07;101158.03;6281460;22;20014;-88
2021/07/22 09:39:32;;;;;;;14.45;7.22;;;26.50;83.30;;;28.60;43.65;101149.25;6284452;22;20011;-85
2021/07/22 09:42:10;;;;;;;13.00;8.25;;;26.40;87.60;;;28.81;44.87;101146.78;6288112;22;20071;-86
2021/07/22 09:44:43;;;;;;;15.45;8.10;;;26.50;90.80;;;29.27;44.49;101148.59;6324461;22;20008;-88
2021/07/22 09:47:16;;;;;;;13.07;7.97;;;26.70;91.30;;;29.97;44.50;101147.59;6299236;22;20023;-89
2021/07/22 09:49:42;;;;;;;13.68;8.40;;;27.20;91.50;;;29.75;40.85;101149.81;6289565;22;20023;-86
2021/07/22 09:52:20;;;;;;;11.05;8.02;;;27.40;80.00;;;29.78;39.92;101161.16;6263941;22;20058;-88
2021/07/22 09:54:46;;;;;;;12.80;9.13;;;27.50;76.90;;;29.33;41.98;101152.44;6292131;22;20003;-89
2021/07/22 09:57:20;;;;;;;12.15;7.82;;;27.40;79.80;;;29.64;41.85;101147.38;6285618;22;20011;-86
2021/07/22 09:59:51;;;;;;;13.68;7.63;;;27.30;79.90;;;28.99;43.84;101144.00;6286263;22;20073;-87
2021/07/22 10:02:25;;;;;;;12.57;8.10;;;27.10;81.90;;;28.85;44.57;101142.50;6258326;22;20156;-88
2021/07/22 10:05:06;;;;;;;10.95;7.57;;;26.80;85.20;;;29.02;43.87;101131.56;6284368;22;20425;-90
2021/07/22 10:07:40;;;;;;;9.90;7.80;;;26.80;85.30;;;29.40;42.18;101134.91;6259622;22;20174;-87